Time;durP1;ratioP1;P1;durP2;ratioP2;P2;SDS_P1;SDS_P2;PMS_P1;PMS_P2;Temp;Humidity;BMP_temperature;BMP_pressure;BME280_temperature;BME280_humidity;BME280_pressure;Samples;Min_cycle;Max_cycle;Signal;HPM_P1;HPM_P2
2022/08/11 00:00:33;;;;;;;;;;;18.80;96.20;;;;;;5088602;28;19928;-57
2022/08/11 00:03:08;;;;;;;;;;;18.80;96.40;;;;;;5088788;28;19931;-61
2022/08/11 00:05:46;;;;;;;;;;;18.70;96.60;;;;;;5086923;28;19931;-62
2022/08/11 00:08:21;;;;;;;;;;;18.60;97.00;;;;;;5086812;28;19924;-62
2022/08/11 00:10:56;;;;;;;;;;;18.50;97.40;;;;;;5088379;28;20283;-62
2022/08/11 00:13:35;;;;;;;;;;;18.50;97.70;;;;;;5069480;28;20379;-60
2022/08/11 00:16:04;;;;;;;;;;;18.40;98.10;;;;;;5088426;28;20010;-62
2022/08/11 00:18:39;;;;;;;;;;;18.40;98.30;;;;;;5088199;28;19928;-64
2022/08/11 00:21:07;;;;;;;;;;;18.30;98.70;;;;;;5088521;28;19924;-62
2022/08/11 00:23:38;;;;;;;;;;;18.30;98.90;;;;;;5090662;28;19924;-59
2022/08/11 00:26:06;;;;;;;;;;;18.20;99.10;;;;;;5091742;28;19924;-56
2022/08/11 00:28:34;;;;;;;;;;;18.20;99.40;;;;;;5080366;28;19939;-55
2022/08/11 00:31:03;;;;;;;;;;;18.10;99.70;;;;;;5091735;28;19924;-57
2022/08/11 00:33:33;;;;;;;;;;;18.10;99.90;;;;;;5091290;28;20119;-60
2022/08/11 00:36:13;;;;;;;;;;;18.00;99.90;;;;;;5091647;28;19935;-58
2022/08/11 00:38:42;;;;;;;;;;;17.90;99.90;;;;;;5091373;28;19935;-62
2022/08/11 00:41:30;;;;;;;;;;;17.90;99.90;;;;;;5091510;28;19928;-59
2022/08/11 00:44:06;;;;;;;;;;;17.80;99.90;;;;;;5058043;28;19924;-62
2022/08/11 00:46:41;;;;;;;;;;;17.80;99.90;;;;;;5091071;28;19924;-62
2022/08/11 00:49:14;;;;;;;;;;;17.70;99.90;;;;;;5091103;28;19925;-56
2022/08/11 00:52:17;;;;;;;;;;;17.70;99.90;;;;;;5091446;28;19924;-62
2022/08/11 00:55:03;;;;;;;;;;;17.60;99.90;;;;;;5067875;28;19928;-61
2022/08/11 00:57:49;;;;;;;;;;;17.60;99.90;;;;;;5082062;28;19959;-54
2022/08/11 01:00:24;;;;;;;;;;;17.60;99.90;;;;;;5091170;28;20363;-62
2022/08/11 01:03:06;;;;;;;;;;;17.50;99.90;;;;;;5089070;28;19928;-59
2022/08/11 01:05:40;;;;;;;;;;;17.50;99.90;;;;;;5087455;28;20290;-62
2022/08/11 01:08:26;;;;;;;;;;;17.40;99.90;;;;;;5089008;28;19924;-62
2022/08/11 01:11:01;;;;;;;;;;;17.40;99.90;;;;;;5089751;28;19924;-63
2022/08/11 01:13:41;;;;;;;;;;;17.30;99.90;;;;;;5075912;28;19928;-61
2022/08/11 01:16:31;;;;;;;;;;;17.30;99.90;;;;;;5090740;28;20033;-55
2022/08/11 01:19:18;;;;;;;;;;;17.30;99.90;;;;;;5090220;28;19931;-57
2022/08/11 01:22:02;;;;;;;;;;;17.20;99.90;;;;;;5090657;28;19924;-55
2022/08/11 01:24:56;;;;;;;;;;;17.20;99.90;;;;;;5072614;28;19931;-59
2022/08/11 01:27:32;;;;;;;;;;;17.20;99.90;;;;;;5083738;28;19925;-55
2022/08/11 01:30:09;;;;;;;;;;;17.10;99.90;;;;;;5070628;28;19932;-54
2022/08/11 01:32:45;;;;;;;;;;;17.10;99.90;;;;;;5073725;28;20078;-55
2022/08/11 01:35:18;;;;;;;;;;;17.00;99.90;;;;;;5073632;28;19924;-55
2022/08/11 01:38:05;;;;;;;;;;;17.00;99.90;;;;;;5076597;28;19924;-53
2022/08/11 01:40:51;;;;;;;;;;;16.90;99.90;;;;;;5094053;28;19924;-53
2022/08/11 01:46:21;;;;;;;;;;;16.80;99.90;;;;;;5081269;28;19924;-61
2022/08/11 01:49:01;;;;;;;;;;;16.80;99.90;;;;;;5092319;28;19924;-61
2022/08/11 01:52:01;;;;;;;;;;;16.80;99.90;;;;;;5093664;28;20402;-59
2022/08/11 01:54:55;;;;;;;;;;;16.70;99.90;;;;;;5093589;28;20447;-61
2022/08/11 01:57:46;;;;;;;;;;;16.70;99.90;;;;;;5091570;28;19994;-59
2022/08/11 02:00:15;;;;;;;;;;;16.70;99.90;;;;;;5093265;28;19924;-58
2022/08/11 02:02:54;;;;;;;;;;;16.60;99.90;;;;;;5093248;28;19924;-62
2022/08/11 02:05:26;;;;;;;;;;;16.60;99.90;;;;;;5075242;28;19947;-61
2022/08/11 02:07:57;;;;;;;;;;;16.60;99.90;;;;;;5093235;28;19924;-61
2022/08/11 02:13:40;;;;;;;;;;;16.50;99.90;;;;;;5092860;28;19931;-62
2022/08/11 02:16:29;;;;;;;;;;;16.40;99.90;;;;;;5093003;28;20291;-62
2022/08/11 02:25:11;;;;;;;;;;;16.30;99.90;;;;;;5092818;28;19924;-54
2022/08/11 02:27:50;;;;;;;;;;;16.30;99.90;;;;;;5088893;28;19924;-61
2022/08/11 02:30:23;;;;;;;;;;;16.30;99.90;;;;;;5092917;28;20388;-61
2022/08/11 02:33:26;;;;;;;;;;;16.20;99.90;;;;;;5092656;28;20364;-57
2022/08/11 02:36:02;;;;;;;;;;;16.20;99.90;;;;;;5092675;28;20310;-61
2022/08/11 02:38:33;;;;;;;;;;;16.20;99.90;;;;;;5092690;28;19928;-55
2022/08/11 02:44:24;;;;;;;;;;;16.20;99.90;;;;;;5092572;28;19938;-61
2022/08/11 02:46:52;;;;;;;;;;;16.20;99.90;;;;;;5092208;28;19931;-53
2022/08/11 02:49:55;;;;;;;;;;;16.10;99.90;;;;;;5092569;28;19928;-61
2022/08/11 02:52:51;;;;;;;;;;;16.10;99.90;;;;;;5049375;28;19932;-54
2022/08/11 02:55:18;;;;;;;;;;;16.10;99.90;;;;;;5091038;28;20283;-60
2022/08/11 02:58:34;;;;;;;;;;;16.10;99.90;;;;;;5092512;28;19924;-60
2022/08/11 03:01:13;;;;;;;;;;;16.00;99.90;;;;;;5076739;28;20397;-62
2022/08/11 03:04:02;;;;;;;;;;;16.00;99.90;;;;;;5092293;28;20291;-61
2022/08/11 03:06:35;;;;;;;;;;;15.90;99.90;;;;;;5092106;28;19935;-61
2022/08/11 03:09:06;;;;;;;;;;;15.90;99.90;;;;;;5092221;28;19924;-61
2022/08/11 03:17:14;;;;;;;;;;;15.80;99.90;;;;;;5092199;28;19931;-62
2022/08/11 03:19:41;;;;;;;;;;;15.70;99.90;;;;;;5092072;28;20303;-61
2022/08/11 03:22:21;;;;;;;;;;;15.70;99.90;;;;;;5090740;28;19939;-62
2022/08/11 03:25:15;;;;;;;;;;;15.70;99.90;;;;;;5092043;28;19924;-61
2022/08/11 03:27:56;;;;;;;;;;;15.60;99.90;;;;;;5088688;28;20424;-61
2022/08/11 03:30:29;;;;;;;;;;;15.60;99.90;;;;;;5092175;28;19924;-62
2022/08/11 03:36:01;;;;;;;;;;;15.50;99.90;;;;;;5092136;28;19924;-65
2022/08/11 03:38:35;;;;;;;;;;;15.40;99.90;;;;;;5090950;28;19931;-61
2022/08/11 03:44:24;;;;;;;;;;;15.40;99.90;;;;;;5091943;28;19932;-55
2022/08/11 03:47:02;;;;;;;;;;;15.40;99.90;;;;;;5090673;28;19924;-55
2022/08/11 03:49:37;;;;;;;;;;;15.30;99.90;;;;;;5091909;28;19928;-54
2022/08/11 03:52:11;;;;;;;;;;;15.30;99.90;;;;;;5090709;28;19924;-53
2022/08/11 03:54:39;;;;;;;;;;;15.30;99.90;;;;;;5090508;28;19939;-55
2022/08/11 03:57:16;;;;;;;;;;;15.20;99.90;;;;;;5092392;28;19931;-54
2022/08/11 04:00:11;;;;;;;;;;;15.20;99.90;;;;;;5094611;28;19931;-54
2022/08/11 04:02:51;;;;;;;;;;;15.20;99.90;;;;;;5096076;28;19924;-54
2022/08/11 04:05:43;;;;;;;;;;;15.20;99.90;;;;;;5095825;28;20291;-54
2022/08/11 04:08:29;;;;;;;;;;;15.10;99.90;;;;;;5095661;28;19924;-54
2022/08/11 04:11:19;;;;;;;;;;;15.10;99.90;;;;;;5095516;28;19925;-57
2022/08/11 04:16:57;;;;;;;;;;;15.10;99.90;;;;;;5095311;28;20395;-62
2022/08/11 04:19:43;;;;;;;;;;;15.00;99.90;;;;;;5095400;28;19924;-57
2022/08/11 04:22:20;;;;;;;;;;;15.00;99.90;;;;;;5095239;28;19924;-56
2022/08/11 04:25:07;;;;;;;;;;;14.90;99.90;;;;;;5093902;28;20395;-57
2022/08/11 04:27:53;;;;;;;;;;;14.90;99.90;;;;;;5095119;28;19943;-58
2022/08/11 04:30:39;;;;;;;;;;;14.90;99.90;;;;;;5095188;28;19927;-56
2022/08/11 04:33:16;;;;;;;;;;;14.90;99.90;;;;;;5095069;28;19932;-55
2022/08/11 04:35:52;;;;;;;;;;;14.80;99.90;;;;;;5095085;28;20323;-53
2022/08/11 04:38:38;;;;;;;;;;;14.80;99.90;;;;;;5094977;28;19931;-54
2022/08/11 04:41:13;;;;;;;;;;;14.80;99.90;;;;;;5094903;28;20440;-55
2022/08/11 04:43:56;;;;;;;;;;;14.80;99.90;;;;;;5094771;28;19994;-61
2022/08/11 04:46:32;;;;;;;;;;;14.70;99.90;;;;;;5094762;28;19931;-61
2022/08/11 05:07:24;;;;;;;;;;;14.60;99.90;;;;;;5068940;28;19955;-56
2022/08/11 05:10:01;;;;;;;;;;;14.60;99.90;;;;;;5087437;28;19924;-61
2022/08/11 05:12:40;;;;;;;;;;;14.60;99.90;;;;;;5090513;28;19931;-55
2022/08/11 05:35:48;;;;;;;;;;;14.70;99.90;;;;;;5066930;28;19931;-62
2022/08/11 05:58:02;;;;;;;;;;;15.00;99.90;;;;;;5090020;28;19928;-60
2022/08/11 06:00:30;;;;;;;;;;;15.00;99.90;;;;;;5088926;28;19928;-62
2022/08/11 06:03:02;;;;;;;;;;;15.10;99.90;;;;;;5084940;28;19928;-58
2022/08/11 06:05:34;;;;;;;;;;;15.10;99.90;;;;;;5082334;28;19924;-59
2022/08/11 06:08:11;;;;;;;;;;;15.20;99.90;;;;;;5079690;28;19924;-60
2022/08/11 06:10:41;;;;;;;;;;;15.30;99.90;;;;;;5089877;28;19931;-62
2022/08/11 06:13:09;;;;;;;;;;;15.30;99.90;;;;;;5071376;28;19931;-62
2022/08/11 06:16:02;;;;;;;;;;;15.40;99.90;;;;;;5089534;28;19924;-62
2022/08/11 06:18:33;;;;;;;;;;;15.40;99.90;;;;;;5084058;28;19925;-60
2022/08/11 06:21:07;;;;;;;;;;;15.50;99.90;;;;;;5069076;28;19977;-61
2022/08/11 06:23:36;;;;;;;;;;;15.60;99.90;;;;;;5088360;28;19924;-61
2022/08/11 06:26:08;;;;;;;;;;;15.60;99.90;;;;;;5088328;28;19924;-60
2022/08/11 06:28:39;;;;;;;;;;;15.70;99.90;;;;;;5086315;28;19925;-62
2022/08/11 06:31:14;;;;;;;;;;;15.80;99.90;;;;;;5087605;28;20376;-56
2022/08/11 06:33:56;;;;;;;;;;;15.80;99.90;;;;;;5084434;28;19933;-57
2022/08/11 06:36:42;;;;;;;;;;;15.90;99.90;;;;;;5070729;28;19939;-61
2022/08/11 06:39:15;;;;;;;;;;;16.00;99.90;;;;;;5089106;28;20493;-60
2022/08/11 06:41:43;;;;;;;;;;;16.10;99.90;;;;;;5089192;28;19924;-61
2022/08/11 06:44:11;;;;;;;;;;;16.20;99.90;;;;;;5088964;28;19928;-60
2022/08/11 06:46:40;;;;;;;;;;;16.30;99.90;;;;;;5089484;28;19924;-60
2022/08/11 06:52:04;;;;;;;;;;;16.50;99.90;;;;;;5069529;28;19924;-61
2022/08/11 06:54:40;;;;;;;;;;;16.60;99.90;;;;;;5089099;28;19924;-62
2022/08/11 07:02:53;;;;;;;;;;;17.00;99.90;;;;;;5085450;28;20434;-61
2022/08/11 07:05:24;;;;;;;;;;;17.10;99.90;;;;;;5069067;28;19924;-61
2022/08/11 07:16:43;;;;;;;;;;;17.60;99.90;;;;;;5087821;28;19924;-58
2022/08/11 07:30:28;;;;;;;;;;;18.40;99.90;;;;;;5088742;28;19931;-61
2022/08/11 07:32:58;;;;;;;;;;;18.60;99.90;;;;;;5092034;28;20382;-59
2022/08/11 07:35:46;;;;;;;;;;;18.70;99.90;;;;;;5077109;28;19935;-58
2022/08/11 07:38:17;;;;;;;;;;;18.90;99.90;;;;;;5082685;28;20367;-56
2022/08/11 07:40:49;;;;;;;;;;;19.00;99.90;;;;;;5093011;28;20425;-55
2022/08/11 07:43:17;;;;;;;;;;;19.10;99.90;;;;;;5091056;28;19928;-58
2022/08/11 07:54:06;;;;;;;;;;;19.70;99.90;;;;;;5089897;28;20489;-63
2022/08/11 07:56:43;;;;;;;;;;;19.90;99.90;;;;;;5088818;28;19925;-63
2022/08/11 08:19:26;;;;;;;;;;;20.90;99.90;;;;;;5087869;28;20298;-62
2022/08/11 08:21:53;;;;;;;;;;;21.00;99.90;;;;;;5072101;28;19952;-63
2022/08/11 08:24:40;;;;;;;;;;;21.00;99.90;;;;;;5091945;28;19970;-64
2022/08/11 08:27:11;;;;;;;;;;;21.20;99.90;;;;;;5073784;28;19924;-62
2022/08/11 08:32:26;;;;;;;;;;;21.40;99.90;;;;;;5091391;28;19931;-61
2022/08/11 08:34:55;;;;;;;;;;;21.50;99.90;;;;;;5084647;28;20291;-61
2022/08/11 08:37:25;;;;;;;;;;;21.50;99.90;;;;;;5089556;28;19943;-60
2022/08/11 08:40:13;;;;;;;;;;;21.60;99.90;;;;;;5076345;28;20298;-63
2022/08/11 08:42:44;;;;;;;;;;;21.80;99.90;;;;;;5091131;28;19924;-62
2022/08/11 08:45:14;;;;;;;;;;;21.90;99.90;;;;;;5091313;28;20363;-58
2022/08/11 08:47:44;;;;;;;;;;;22.00;99.90;;;;;;5091097;28;19935;-60
2022/08/11 08:50:21;;;;;;;;;;;22.00;99.90;;;;;;5082664;28;19932;-58
2022/08/11 08:52:59;;;;;;;;;;;22.20;99.90;;;;;;5078495;28;19924;-61
2022/08/11 08:55:27;;;;;;;;;;;22.20;99.90;;;;;;5091320;28;19924;-56
2022/08/11 08:57:59;;;;;;;;;;;22.30;99.90;;;;;;5091104;28;19926;-55
2022/08/11 09:00:37;;;;;;;;;;;22.40;99.90;;;;;;5091473;28;19927;-56
2022/08/11 09:03:05;;;;;;;;;;;22.40;99.70;;;;;;5091245;28;20306;-57
2022/08/11 09:05:53;;;;;;;;;;;22.50;99.60;;;;;;5077476;28;19932;-59
2022/08/11 09:08:21;;;;;;;;;;;22.60;99.30;;;;;;5081725;28;20314;-62
2022/08/11 09:11:48;;;;;;;;;;;22.70;99.50;;;;;;5091183;28;19931;-62
2022/08/11 09:13:43;;;;;;;;;;;22.80;99.40;;;;;;5089826;28;20310;-61
2022/08/11 09:16:11;;;;;;;;;;;22.90;98.70;;;;;;5091164;28;19927;-63
2022/08/11 09:18:43;;;;;;;;;;;23.00;98.60;;;;;;5090784;28;20493;-57
2022/08/11 09:21:13;;;;;;;;;;;23.10;98.80;;;;;;5076713;28;19925;-61
2022/08/11 09:26:58;;;;;;;;;;;23.30;97.90;;;;;;5090728;28;19928;-61
2022/08/11 09:29:27;;;;;;;;;;;23.40;98.00;;;;;;5090477;28;19924;-57
2022/08/11 09:31:55;;;;;;;;;;;23.60;97.50;;;;;;5090308;28;19924;-54
2022/08/11 09:34:25;;;;;;;;;;;23.60;97.60;;;;;;5070162;28;19924;-61
2022/08/11 09:44:45;;;;;;;;;;;23.90;96.80;;;;;;5073133;28;20388;-60
2022/08/11 09:45:15;;;;;;;;;;;24.10;96.60;;;;;;5090164;28;19931;-56
2022/08/11 09:47:43;;;;;;;;;;;24.20;96.50;;;;;;5088705;28;19945;-58
2022/08/11 09:50:13;;;;;;;;;;;24.30;96.10;;;;;;5084726;28;20316;-60
2022/08/11 09:52:44;;;;;;;;;;;24.50;94.50;;;;;;5076877;28;19931;-62
2022/08/11 09:55:35;;;;;;;;;;;24.70;94.50;;;;;;5089208;28;19931;-55
2022/08/11 09:58:17;;;;;;;;;;;24.90;94.20;;;;;;5089868;28;19931;-56
2022/08/11 10:01:06;;;;;;;;;;;25.00;94.30;;;;;;5090369;28;20295;-63
2022/08/11 10:03:36;;;;;;;;;;;25.20;93.00;;;;;;5089458;28;19928;-56
2022/08/11 10:09:04;;;;;;;;;;;25.50;92.50;;;;;;5074238;28;19924;-56
2022/08/11 10:11:33;;;;;;;;;;;25.60;91.30;;;;;;5079531;28;19924;-55
2022/08/11 10:17:05;;;;;;;;;;;25.90;91.30;;;;;;5069435;28;19924;-62
2022/08/11 10:19:37;;;;;;;;;;;26.20;90.00;;;;;;5073051;28;19951;-65
2022/08/11 10:27:53;;;;;;;;;;;26.60;86.00;;;;;;5073360;28;19924;-56
2022/08/11 10:36:33;;;;;;;;;;;27.10;83.40;;;;;;5077481;28;19936;-59
2022/08/11 10:39:02;;;;;;;;;;;27.20;82.70;;;;;;5071832;28;19924;-62
2022/08/11 10:44:37;;;;;;;;;;;27.50;82.80;;;;;;5068767;28;19931;-64
2022/08/11 11:01:00;;;;;;;;;;;28.20;78.40;;;;;;5065025;28;19925;-59
2022/08/11 11:03:29;;;;;;;;;;;28.30;77.70;;;;;;5077887;28;19924;-63
2022/08/11 11:06:02;;;;;;;;;;;28.40;77.90;;;;;;5085516;28;20075;-59
2022/08/11 11:08:54;;;;;;;;;;;28.60;78.00;;;;;;5089048;28;20378;-61
2022/08/11 11:20:15;;;;;;;;;;;29.30;72.00;;;;;;5085649;28;19928;-61
2022/08/11 11:23:09;;;;;;;;;;;29.40;70.70;;;;;;5087797;28;19935;-57
2022/08/11 11:26:11;;;;;;;;;;;29.40;71.30;;;;;;5088737;28;19924;-56
2022/08/11 11:28:47;;;;;;;;;;;29.40;69.90;;;;;;5084961;28;20371;-57
2022/08/11 11:31:38;;;;;;;;;;;29.40;69.50;;;;;;5068987;28;19925;-59
2022/08/11 11:34:12;;;;;;;;;;;29.40;69.50;;;;;;5083404;28;19928;-60
2022/08/11 11:36:39;;;;;;;;;;;29.40;68.80;;;;;;5088698;28;19924;-63
2022/08/11 11:39:07;;;;;;;;;;;29.50;69.20;;;;;;5088457;28;20279;-62
2022/08/11 11:41:35;;;;;;;;;;;29.70;67.60;;;;;;5088729;28;19924;-61
2022/08/11 11:44:03;;;;;;;;;;;29.90;67.80;;;;;;5082977;28;19924;-63
2022/08/11 11:46:31;;;;;;;;;;;30.10;67.30;;;;;;5068366;28;19931;-62
2022/08/11 11:49:07;;;;;;;;;;;30.30;67.10;;;;;;5084468;28;19924;-62
2022/08/11 11:51:44;;;;;;;;;;;30.60;65.80;;;;;;5088660;28;20083;-60
2022/08/11 11:54:16;;;;;;;;;;;30.80;65.50;;;;;;5070316;28;19928;-61
2022/08/11 11:56:44;;;;;;;;;;;31.10;65.80;;;;;;5088787;28;20389;-64
2022/08/11 12:01:59;;;;;;;;;;;31.60;65.10;;;;;;5068205;28;19924;-63
2022/08/11 12:04:42;;;;;;;;;;;31.90;64.50;;;;;;5088449;28;20295;-63
2022/08/11 12:09:57;;;;;;;;;;;32.50;62.60;;;;;;5088396;28;19959;-63
2022/08/11 12:15:11;;;;;;;;;;;32.90;58.30;;;;;;5075300;28;19924;-57
2022/08/11 12:17:39;;;;;;;;;;;33.00;57.60;;;;;;5072127;28;20150;-56
2022/08/11 12:20:07;;;;;;;;;;;33.20;58.00;;;;;;5091932;28;19931;-56
2022/08/11 12:28:49;;;;;;;;;;;33.70;55.90;;;;;;5091310;28;19925;-62
2022/08/11 12:31:20;;;;;;;;;;;33.90;54.80;;;;;;5070459;28;20107;-63
2022/08/11 12:33:49;;;;;;;;;;;34.20;55.80;;;;;;5083137;28;19928;-63
2022/08/11 12:36:17;;;;;;;;;;;34.40;55.00;;;;;;5089240;28;19931;-61
2022/08/11 12:38:46;;;;;;;;;;;34.60;55.00;;;;;;5091681;28;19924;-59
2022/08/11 12:46:56;;;;;;;;;;;35.30;53.40;;;;;;5071625;28;19932;-62
2022/08/11 12:52:17;;;;;;;;;;;35.70;52.10;;;;;;5091322;28;20382;-62
2022/08/11 12:55:03;;;;;;;;;;;35.90;50.70;;;;;;5091525;28;19931;-61
2022/08/11 13:05:59;;;;;;;;;;;36.50;51.60;;;;;;5091397;28;19924;-59
2022/08/11 13:08:28;;;;;;;;;;;36.50;49.40;;;;;;5091513;28;20365;-57
2022/08/11 13:13:46;;;;;;;;;;;36.60;48.90;;;;;;5091064;28;20492;-60
2022/08/11 13:16:25;;;;;;;;;;;36.50;49.00;;;;;;5085714;28;19932;-61
2022/08/11 13:18:53;;;;;;;;;;;36.60;49.40;;;;;;5084486;28;19924;-60
2022/08/11 13:21:21;;;;;;;;;;;36.70;47.90;;;;;;5090919;28;19932;-59
2022/08/11 13:23:50;;;;;;;;;;;36.60;47.60;;;;;;5090629;28;19928;-56
2022/08/11 13:26:33;;;;;;;;;;;36.70;48.00;;;;;;5091015;28;19924;-62
2022/08/11 13:29:18;;;;;;;;;;;36.80;48.70;;;;;;5090151;28;19931;-62
2022/08/11 13:31:47;;;;;;;;;;;37.00;48.00;;;;;;5070555;28;19925;-60
2022/08/11 13:34:15;;;;;;;;;;;37.00;47.60;;;;;;5088578;28;20374;-60
2022/08/11 13:36:44;;;;;;;;;;;37.10;48.40;;;;;;5089739;28;19924;-59
2022/08/11 13:39:12;;;;;;;;;;;37.30;48.20;;;;;;5089138;28;19946;-61
2022/08/11 13:41:43;;;;;;;;;;;37.40;47.40;;;;;;5089128;28;19946;-61
2022/08/11 13:44:12;;;;;;;;;;;37.60;48.40;;;;;;5089101;28;19931;-61
2022/08/11 13:46:44;;;;;;;;;;;37.70;47.20;;;;;;5070677;28;19925;-59
2022/08/11 13:49:16;;;;;;;;;;;37.80;46.80;;;;;;5086803;28;20375;-61
2022/08/11 13:51:43;;;;;;;;;;;37.90;46.60;;;;;;5090426;28;19935;-58
2022/08/11 13:54:17;;;;;;;;;;;38.00;46.20;;;;;;5090210;28;20433;-55
2022/08/11 13:56:46;;;;;;;;;;;38.00;46.70;;;;;;5090571;28;19928;-54
2022/08/11 13:59:19;;;;;;;;;;;38.00;46.00;;;;;;5090232;28;19924;-57
2022/08/11 14:01:55;;;;;;;;;;;38.10;45.90;;;;;;5085799;28;19929;-56
2022/08/11 14:04:52;;;;;;;;;;;38.30;45.80;;;;;;5069838;28;20293;-60
2022/08/11 14:07:22;;;;;;;;;;;38.40;44.50;;;;;;5068020;28;19924;-61
2022/08/11 14:09:54;;;;;;;;;;;38.30;45.10;;;;;;5085107;28;19932;-61
2022/08/11 14:15:18;;;;;;;;;;;38.40;45.20;;;;;;5084615;28;19924;-61
2022/08/11 14:17:52;;;;;;;;;;;38.40;45.80;;;;;;5073884;28;19935;-60
2022/08/11 14:20:20;;;;;;;;;;;38.50;45.50;;;;;;5089846;28;19924;-61
2022/08/11 14:23:09;;;;;;;;;;;38.60;45.30;;;;;;5088516;28;19928;-62
2022/08/11 14:26:22;;;;;;;;;;;38.80;46.30;;;;;;5088701;28;19928;-61
2022/08/11 14:28:32;;;;;;;;;;;39.10;46.00;;;;;;5089561;28;19928;-62
2022/08/11 14:31:07;;;;;;;;;;;39.30;44.90;;;;;;5078565;28;19935;-62
2022/08/11 14:33:36;;;;;;;;;;;39.00;45.10;;;;;;5081833;28;20758;-62
2022/08/11 14:36:24;;;;;;;;;;;38.70;44.50;;;;;;5089584;28;19924;-59
2022/08/11 14:38:52;;;;;;;;;;;38.50;45.00;;;;;;5088604;28;19924;-63
2022/08/11 14:47:17;;;;;;;;;;;38.30;44.70;;;;;;5069965;28;19929;-56
2022/08/11 14:49:54;;;;;;;;;;;38.30;44.80;;;;;;5089388;28;19924;-56
2022/08/11 14:52:36;;;;;;;;;;;38.30;44.60;;;;;;5088867;28;20382;-59
2022/08/11 14:57:51;;;;;;;;;;;38.40;43.40;;;;;;5089395;28;19924;-62
2022/08/11 15:00:23;;;;;;;;;;;38.50;43.70;;;;;;5086491;28;19928;-61
2022/08/11 15:03:10;;;;;;;;;;;38.50;43.80;;;;;;5073306;28;20391;-62
2022/08/11 15:05:44;;;;;;;;;;;38.60;43.40;;;;;;5089165;28;19951;-61
2022/08/11 15:14:04;;;;;;;;;;;38.80;43.70;;;;;;5088560;28;19934;-63
2022/08/11 15:19:19;;;;;;;;;;;39.00;43.40;;;;;;5084616;28;19928;-62
2022/08/11 15:24:36;;;;;;;;;;;38.70;43.30;;;;;;5088685;28;19924;-60
2022/08/11 15:38:40;;;;;;;;;;;39.00;43.10;;;;;;5079564;28;19924;-56
2022/08/11 15:46:43;;;;;;;;;;;39.30;43.40;;;;;;5076841;28;20379;-55
2022/08/11 15:49:16;;;;;;;;;;;39.40;42.80;;;;;;5083929;28;19924;-56
2022/08/11 15:51:56;;;;;;;;;;;39.20;42.80;;;;;;5088720;28;19928;-55
2022/08/11 15:54:30;;;;;;;;;;;38.90;43.10;;;;;;5090924;28;19928;-56
2022/08/11 15:57:00;;;;;;;;;;;38.60;42.70;;;;;;5092434;28;19924;-55
2022/08/11 16:05:12;;;;;;;;;;;37.90;42.50;;;;;;5081622;28;19928;-54
2022/08/11 16:08:00;;;;;;;;;;;37.70;43.10;;;;;;5092480;28;19924;-55
2022/08/11 16:10:30;;;;;;;;;;;37.70;43.50;;;;;;5091182;28;19924;-54
2022/08/11 16:16:12;;;;;;;;;;;37.40;43.40;;;;;;5092100;28;19924;-55
2022/08/11 16:18:42;;;;;;;;;;;36.80;44.00;;;;;;5083223;28;19935;-62
2022/08/11 16:21:16;;;;;;;;;;;36.40;44.50;;;;;;5091191;28;19928;-60
2022/08/11 16:24:11;;;;;;;;;;;36.00;44.90;;;;;;5090388;28;20287;-62
2022/08/11 16:27:00;;;;;;;;;;;35.60;45.30;;;;;;5091850;28;19932;-58
2022/08/11 16:29:42;;;;;;;;;;;35.20;45.50;;;;;;5091909;28;20280;-60
2022/08/11 16:32:19;;;;;;;;;;;34.90;45.90;;;;;;5080489;28;19956;-58
2022/08/11 16:40:22;;;;;;;;;;;33.70;47.10;;;;;;5091958;28;20383;-62
2022/08/11 16:48:27;;;;;;;;;;;32.90;47.50;;;;;;5080739;28;19931;-61
2022/08/11 16:51:09;;;;;;;;;;;32.70;47.50;;;;;;5091730;28;19924;-62
2022/08/11 16:53:38;;;;;;;;;;;32.60;47.60;;;;;;5091322;28;19939;-62
2022/08/11 16:56:31;;;;;;;;;;;32.50;48.30;;;;;;5091469;28;19931;-61
2022/08/11 16:59:13;;;;;;;;;;;32.20;48.30;;;;;;5073211;28;19924;-64
2022/08/11 17:01:42;;;;;;;;;;;32.10;48.60;;;;;;5086470;28;20322;-59
2022/08/11 17:13:07;;;;;;;;;;;31.80;48.90;;;;;;5091403;28;20371;-62
2022/08/11 17:13:22;;;;;;;;;;;31.50;49.10;;;;;;5090866;28;19931;-64
2022/08/11 17:16:06;;;;;;;;;;;31.40;48.70;;;;;;5089843;28;20375;-63
2022/08/11 17:18:39;;;;;;;;;;;31.30;48.80;;;;;;5090845;28;19924;-63
2022/08/11 17:21:07;;;;;;;;;;;31.30;49.30;;;;;;5091299;28;19943;-66
2022/08/11 17:23:48;;;;;;;;;;;31.20;49.70;;;;;;5090652;28;20283;-62
2022/08/11 17:26:18;;;;;;;;;;;31.20;49.80;;;;;;5073148;28;19928;-63
2022/08/11 17:28:50;;;;;;;;;;;31.20;49.80;;;;;;5090625;28;19924;-63
2022/08/11 17:36:54;;;;;;;;;;;31.00;50.40;;;;;;5090741;28;19924;-62
2022/08/11 17:39:23;;;;;;;;;;;30.90;50.10;;;;;;5090481;28;19924;-63
2022/08/11 17:50:12;;;;;;;;;;;30.60;50.40;;;;;;5072656;28;19928;-62
2022/08/11 18:01:07;;;;;;;;;;;30.20;52.20;;;;;;5086921;28;19935;-63
2022/08/11 18:03:39;;;;;;;;;;;30.00;52.50;;;;;;5080850;28;20420;-62
2022/08/11 18:06:11;;;;;;;;;;;29.90;53.00;;;;;;5087287;28;20438;-63
